• Join FlightAware (Why Join?)
  • Login
  • US Flag 
09:57AM EDT


 

Airport Tracker/Info


-or-


 

Live Flight TrackerFlight Track Log ✈ UAL33 ✈ 07/Dec/2013 ✈ RJAA / NRT - KLAX

Flight Track Log - Related Links

Times and Time Zones

All times are in EST time to prevent confusion due to time zone crossing. See the UAL33 flight status page for this flight to view local times or setup timezone preferences in your user account.

Time Position Orientation Groundspeed Altitude Reporting Facility
EST Latitude Longitude Course Direction KTS MPH feet Rate Location/Type
04:28AM 36.1142 141.0329 104° East  Level Estimated
04:29AM 36.2011 141.1954 98° East  Level Estimated
04:30AM 36.0920 141.3358 134° Southeast  Level FlightAware Approximate
04:31AM 36.1785 141.4986 102° East  Level Estimated
04:32AM 36.2648 141.6617 97° East  Level Estimated
04:33AM 36.3508 141.8252 103° East  Level Estimated
04:34AM 36.4366 141.9890 104° East  Level Estimated
04:35AM 36.5223 142.1532 101° East  Level Estimated
04:36AM 36.3995 142.2756 141° Southeast  Level FlightAware Approximate
04:37AM 36.2766 142.3976 141° Southeast  Level FlightAware Approximate
04:38AM 36.3619 142.5618 101° East  Level Estimated
04:39AM 36.2428 142.6894 139° Southeast  Level FlightAware Approximate
04:40AM 36.3277 142.8537 87° East  Level Estimated
04:41AM 36.2581 143.0288 116° Southeast  Level FlightAware Approximate
04:42AM 36.1883 143.2036 116° Southeast  Level FlightAware Approximate
04:43AM 36.1183 143.3781 116° Southeast  Level FlightAware Approximate
04:44AM 36.0479 143.5523 116° Southeast  Level FlightAware Approximate
04:45AM 35.9774 143.7262 117° Southeast  Level FlightAware Approximate
04:46AM 35.9066 143.8997 117° Southeast  Level FlightAware Approximate
04:47AM 35.8355 144.0730 117° Southeast  Level FlightAware Approximate
04:48AM 35.9190 144.2375 88° East  Level Estimated
04:49AM 35.8587 144.4169 112° Southeast  Level FlightAware Approximate
04:50AM 35.7981 144.5960 113° Southeast  Level FlightAware Approximate
04:51AM 35.7373 144.7748 113° Southeast  Level FlightAware Approximate
04:52AM 35.8201 144.9398 77° East  Level Estimated
04:53AM 35.8126 145.1336 93° East  Level FlightAware Approximate
04:54AM 35.8048 145.3274 93° East  Level FlightAware Approximate
04:55AM 35.7967 145.5211 93° East  Level FlightAware Approximate
04:56AM 35.7883 145.7148 93° East  Level FlightAware Approximate
04:57AM 35.7796 145.9085 93° East  Level FlightAware Approximate
04:58AM 35.7707 146.1006 93° East  Level FlightAware Approximate
04:59AM 35.7614 146.2928 93° East  Level FlightAware Approximate
05:00AM 35.7519 146.4849 93° East  Level FlightAware Approximate
05:01AM 35.7420 146.6769 94° East  Level FlightAware Approximate
05:02AM 35.8221 146.8422 78° East  Level Estimated
05:03AM 35.8353 147.0341 85° East  Level FlightAware Approximate
05:04AM 35.8482 147.2261 85° East  Level FlightAware Approximate
05:05AM 35.8608 147.4181 85° East  Level FlightAware Approximate
05:06AM 35.8730 147.6102 85° East  Level FlightAware Approximate
05:07AM 35.8850 147.8024 86° East  Level FlightAware Approximate
05:08AM 35.8967 147.9946 86° East  Level FlightAware Approximate
05:09AM 35.9081 148.1869 86° East  Level FlightAware Approximate
05:10AM 35.9191 148.3793 86° East  Level FlightAware Approximate
05:11AM 35.9299 148.5717 86° East  Level FlightAware Approximate
05:12AM 35.9403 148.7641 86° East  Level FlightAware Approximate
05:13AM 36.0180 148.9315 87° East  Level Estimated
05:14AM 36.0264 149.1243 87° East  Level FlightAware Approximate
05:15AM 36.0345 149.3172 87° East  Level FlightAware Approximate
05:16AM 36.0423 149.5101 87° East  Level FlightAware Approximate
05:17AM 36.0498 149.7030 87° East  Level FlightAware Approximate
05:18AM 36.0570 149.8960 87° East  Level FlightAware Approximate
05:19AM 36.0639 150.0890 87° East  Level FlightAware Approximate
05:20AM 36.0704 150.2820 88° East  Level FlightAware Approximate
05:21AM 36.0767 150.4751 88° East  Level FlightAware Approximate
05:22AM 36.0826 150.6681 88° East  Level FlightAware Approximate
05:23AM 36.0882 150.8613 88° East  Level FlightAware Approximate
05:24AM 36.0936 151.0544 88° East  Level FlightAware Approximate
05:25AM 36.0986 151.2476 88° East  Level FlightAware Approximate
05:26AM 36.1033 151.4408 88° East  Level FlightAware Approximate
05:27AM 36.1077 151.6340 88° East  Level FlightAware Approximate
05:28AM 36.1117 151.8272 88° East  Level FlightAware Approximate
05:29AM 36.1155 152.0205 89° East  Level FlightAware Approximate
05:30AM 36.1190 152.2138 89° East  Level FlightAware Approximate
05:31AM 36.1221 152.4071 89° East  Level FlightAware Approximate
05:32AM 36.1250 152.6004 89° East  Level FlightAware Approximate
05:33AM 36.1275 152.7937 89° East  Level FlightAware Approximate
05:34AM 36.1297 152.9870 89° East  Level FlightAware Approximate
05:35AM 36.1316 153.1804 89° East  Level FlightAware Approximate
05:36AM 36.1332 153.3737 89° East  Level FlightAware Approximate
05:37AM 36.1345 153.5671 89° East  Level FlightAware Approximate
05:38AM 36.1355 153.7604 90° East  Level FlightAware Approximate
05:39AM 36.1361 153.9538 90° East  Level FlightAware Approximate
05:40AM 36.1365 154.1472 90° East  Level FlightAware Approximate
05:41AM 36.1365 154.3405 90° East  Level FlightAware Approximate
05:42AM 36.1363 154.5339 90° East  Level FlightAware Approximate
05:43AM 36.1357 154.7273 90° East  Level FlightAware Approximate
05:44AM 36.1348 154.9207 90° East  Level FlightAware Approximate
05:45AM 36.1336 155.1140 90° East  Level FlightAware Approximate
05:46AM 36.1321 155.3074 90° East  Level FlightAware Approximate
05:47AM 36.1303 155.5007 91° East  Level FlightAware Approximate
05:48AM 36.1281 155.6941 91° East  Level FlightAware Approximate
05:49AM 36.1257 155.8874 91° East  Level FlightAware Approximate
05:50AM 36.1229 156.0807 91° East  Level FlightAware Approximate
05:51AM 36.1199 156.2740 91° East  Level FlightAware Approximate
05:52AM 36.1165 156.4673 91° East  Level FlightAware Approximate
05:53AM 36.1128 156.6605 91° East  Level FlightAware Approximate
05:54AM 36.1088 156.8538 91° East  Level FlightAware Approximate
05:55AM 36.1045 157.0470 92° East  Level FlightAware Approximate
05:56AM 36.0999 157.2402 92° East  Level FlightAware Approximate
05:57AM 36.0950 157.4334 92° East  Level FlightAware Approximate
05:58AM 36.0897 157.6265 92° East  Level FlightAware Approximate
05:59AM 36.0842 157.8197 92° East  Level FlightAware Approximate
06:00AM 36.0783 158.0128 92° East  Level FlightAware Approximate
06:01AM 36.0722 158.2058 92° East  Level FlightAware Approximate
06:02AM 36.0657 158.3989 92° East  Level FlightAware Approximate
06:03AM 36.0589 158.5919 92° East  Level FlightAware Approximate
06:04AM 36.0518 158.7849 93° East  Level FlightAware Approximate
06:05AM 36.1186 158.9595 88° East  Level Estimated
06:06AM 36.1094 159.1525 93° East  Level FlightAware Approximate
06:07AM 36.0998 159.3454 93° East  Level FlightAware Approximate
06:08AM 36.0899 159.5383 94° East  Level FlightAware Approximate
06:09AM 36.1559 159.7136 87° East  Level Estimated
06:10AM 36.1547 159.9070 90° East  Level FlightAware Approximate
06:11AM 36.1533 160.1004 90° East  Level FlightAware Approximate
06:12AM 36.1515 160.2938 91° East  Level FlightAware Approximate
06:13AM 36.1494 160.4872 91° East  Level FlightAware Approximate
06:14AM 36.1470 160.6806 91° East  Level FlightAware Approximate
06:15AM 36.1443 160.8739 91° East  Level FlightAware Approximate
06:16AM 36.1413 161.0673 91° East  Level FlightAware Approximate
06:17AM 36.1380 161.2606 91° East  Level FlightAware Approximate
06:18AM 36.1343 161.4539 91° East  Level FlightAware Approximate
06:19AM 36.1304 161.6472 91° East  Level FlightAware Approximate
06:20AM 36.1261 161.8405 92° East  Level FlightAware Approximate
06:21AM 36.1215 162.0338 92° East  Level FlightAware Approximate
06:22AM 36.1848 162.2106 89° East  Level Estimated
06:23AM 36.1810 162.4041 91° East  Level FlightAware Approximate
06:24AM 36.1768 162.5975 91° East  Level FlightAware Approximate
06:25AM 36.1724 162.7908 92° East  Level FlightAware Approximate
06:26AM 36.1676 162.9842 92° East  Level FlightAware Approximate
06:27AM 36.1625 163.1776 92° East  Level FlightAware Approximate
06:28AM 36.1571 163.3709 92° East  Level FlightAware Approximate
06:29AM 36.1514 163.5641 92° East  Level FlightAware Approximate
06:30AM 36.2130 163.7419 90° East  Level Estimated
06:31AM 36.2113 163.9355 91° East  Level FlightAware Approximate
06:32AM 36.2093 164.1290 91° East  Level FlightAware Approximate
06:33AM 36.2070 164.3226 91° East  Level FlightAware Approximate
06:34AM 36.2044 164.5161 91° East  Level FlightAware Approximate
06:35AM 36.2014 164.7096 91° East  Level FlightAware Approximate
06:36AM 36.1982 164.9031 91° East  Level FlightAware Approximate
06:37AM 36.1946 165.0965 91° East  Level FlightAware Approximate
06:38AM 36.1907 165.2900 91° East  Level FlightAware Approximate
06:39AM 36.1865 165.4834 91° East  Level FlightAware Approximate
06:40AM 36.1820 165.6768 92° East  Level FlightAware Approximate
06:41AM 36.1772 165.8702 92° East  Level FlightAware Approximate
06:42AM 36.1721 166.0636 92° East  Level FlightAware Approximate
06:43AM 36.1667 166.2569 92° East  Level FlightAware Approximate
06:44AM 36.1609 166.4502 92° East  Level FlightAware Approximate
06:45AM 36.1549 166.6435 92° East  Level FlightAware Approximate
06:45AM 36.0833 167.4667 92° East 614 707 39,000  Level Oakland Oceanic (ODAPS)
06:46AM 36.1485 166.8368 92° East  Level FlightAware Approximate
06:47AM 36.1419 167.0300 92° East  Level FlightAware Approximate
06:48AM 36.1349 167.2232 93° East  Level FlightAware Approximate
06:49AM 36.1276 167.4163 93° East  Level FlightAware Approximate
06:50AM 36.1200 167.6094 93° East  Level FlightAware Approximate
06:51AM 36.1121 167.8025 93° East  Level FlightAware Approximate
06:52AM 36.0412 168.9451 92° East 614 707 39,000  Level FlightAware Transoceanic
06:53AM 36.0337 169.1562 93° East 614 707 39,000  Level FlightAware Transoceanic
06:54AM 36.0258 169.3672 93° East 614 707 39,000  Level FlightAware Transoceanic
06:55AM 36.0176 169.5782 93° East 614 707 39,000  Level FlightAware Transoceanic
06:56AM 36.0090 169.7891 93° East 614 707 39,000  Level FlightAware Transoceanic
06:57AM 36.0000 170.0000 87° East 614 707 39,000  Level FlightAware Transoceanic
06:58AM 36.0078 170.1920 87° East 614 707 39,000  Level FlightAware Transoceanic
06:58AM 36.0167 170.2167 87° East 564 649 39,000  Level Oakland Oceanic (ODAPS)
06:59AM 36.0154 170.3840 87° East 614 707 39,000  Level FlightAware Transoceanic
06:59AM 36.0167 170.3667 87° East 609 701 39,000  Level Oakland Oceanic (ODAPS)
07:00AM 36.0226 170.5761 87° East 614 707 39,000  Level FlightAware Transoceanic
07:01AM 36.0295 170.7682 88° East 614 707 39,000  Level FlightAware Transoceanic
07:02AM 36.0361 170.9603 88° East 614 707 39,000  Level FlightAware Transoceanic
07:03AM 36.0424 171.1525 88° East 614 707 39,000  Level FlightAware Transoceanic
07:04AM 36.0484 171.3447 88° East 614 707 39,000  Level FlightAware Transoceanic
07:05AM 36.0554 171.5216 88° East 609 701 39,000  Level FlightAware Transoceanic
07:06AM 36.0608 171.7142 88° East 609 701 39,000  Level FlightAware Transoceanic
07:07AM 36.0658 171.9068 88° East 609 701 39,000  Level FlightAware Transoceanic
07:08AM 36.0706 172.0995 88° East 609 701 39,000  Level FlightAware Transoceanic
07:09AM 36.0751 172.2921 88° East 609 701 39,000  Level FlightAware Transoceanic
07:10AM 36.0792 172.4848 89° East 609 701 39,000  Level FlightAware Transoceanic
07:11AM 36.0830 172.6775 89° East 609 701 39,000  Level FlightAware Transoceanic
07:12AM 36.0866 172.8703 89° East 609 701 39,000  Level FlightAware Transoceanic
07:13AM 36.0898 173.0630 89° East 609 701 39,000  Level FlightAware Transoceanic
07:13AM 36.0833 173.2167 89° East 590 679 39,000  Level Oakland Oceanic (ODAPS)
07:14AM 36.0927 173.2558 89° East 609 701 39,000  Level FlightAware Transoceanic
07:15AM 36.0953 173.4485 89° East 609 701 39,000  Level FlightAware Transoceanic
07:16AM 36.0976 173.6413 89° East 609 701 39,000  Level FlightAware Transoceanic
07:17AM 36.0995 173.8341 89° East 609 701 39,000  Level FlightAware Transoceanic
07:18AM 36.1012 174.0269 89° East 609 701 39,000  Level FlightAware Transoceanic
07:19AM 36.0960 174.3477 90° East 590 679 39,000  Level FlightAware Transoceanic
07:20AM 36.0971 174.5363 90° East 590 679 39,000  Level FlightAware Transoceanic
07:21AM 36.0979 174.7248 90° East 590 679 39,000  Level FlightAware Transoceanic
07:22AM 36.0984 174.9133 90° East 590 679 39,000  Level FlightAware Transoceanic
07:23AM 36.0985 175.1019 90° East 590 679 39,000  Level FlightAware Transoceanic
07:24AM 36.0984 175.2904 90° East 590 679 39,000  Level FlightAware Transoceanic
07:25AM 36.0980 175.4790 90° East 590 679 39,000  Level FlightAware Transoceanic
07:26AM 36.0974 175.6675 90° East 590 679 39,000  Level FlightAware Transoceanic
07:27AM 36.0964 175.8560 90° East 590 679 39,000  Level FlightAware Transoceanic
07:27AM 36.1000 175.9667 91° East 567 652 39,000  Level Oakland Oceanic (ODAPS)
07:28AM 36.0951 176.0446 91° East 590 679 39,000  Level FlightAware Transoceanic
07:29AM 36.0935 176.2331 91° East 590 679 39,000  Level FlightAware Transoceanic
07:30AM 36.0916 176.4216 91° East 590 679 39,000  Level FlightAware Transoceanic
07:31AM 36.0895 176.6101 91° East 590 679 39,000  Level FlightAware Transoceanic
07:32AM 36.0870 176.7986 91° East 590 679 39,000  Level FlightAware Transoceanic
07:33AM 36.0852 177.1200 91° East 567 652 39,000  Level FlightAware Transoceanic
07:34AM 36.0817 177.3122 91° East 567 652 39,000  Level FlightAware Transoceanic
07:35AM 36.0778 177.5043 91° East 567 652 39,000  Level FlightAware Transoceanic
07:36AM 36.0737 177.6965 92° East 567 652 39,000  Level FlightAware Transoceanic
07:37AM 36.0692 177.8886 92° East 567 652 39,000  Level FlightAware Transoceanic
07:38AM 36.0645 178.0807 92° East 567 652 39,000  Level FlightAware Transoceanic
07:39AM 36.0594 178.2727 92° East 567 652 39,000  Level FlightAware Transoceanic
07:40AM 36.0540 178.4648 92° East 567 652 39,000  Level FlightAware Transoceanic
07:40AM 36.0500 178.6000 92° East 549 632 39,000  Level Oakland Oceanic (ODAPS)
07:41AM 36.0483 178.6568 92° East 567 652 39,000  Level FlightAware Transoceanic
07:42AM 36.0424 178.8488 92° East 567 652 39,000  Level FlightAware Transoceanic
07:43AM 36.0361 179.0407 92° East 567 652 39,000  Level FlightAware Transoceanic
07:44AM 36.0295 179.2327 92° East 567 652 39,000  Level FlightAware Transoceanic
07:45AM 36.0225 179.4245 93° East 567 652 39,000  Level FlightAware Transoceanic
07:46AM 36.0153 179.6164 93° East 567 652 39,000  Level FlightAware Transoceanic
07:47AM 36.0081 179.8001 93° East 549 632 39,000  Level FlightAware Transoceanic
07:48AM 36.0000 -180.0000 87° East 549 632 39,000 120 Level FlightAware Transoceanic
07:48AM 36.0000 180.0000 87° East 546 628 39,200  Climbing Oakland Oceanic (ODAPS)
07:49AM 36.0077 -179.8116 87° East 549 632 39,000 -180 Descending FlightAware Transoceanic
07:50AM 36.0151 -179.6232 87° East 549 632 39,000  Level FlightAware Transoceanic
07:51AM 36.0222 -179.4348 87° East 549 632 39,000  Level FlightAware Transoceanic
07:52AM 36.0290 -179.2463 87° East 549 632 39,000  Level FlightAware Transoceanic
07:53AM 36.0355 -179.0578 88° East 549 632 39,000 60 Level FlightAware Transoceanic
07:54AM 36.0410 -178.8902 88° East 546 628 39,200 540 Climbing FlightAware Transoceanic
07:54AM 36.0500 -178.8167 88° East 544 626 40,000  Climbing Oakland Oceanic (ODAPS)
07:55AM 36.0469 -178.7052 88° East 546 628 39,200 -660 Descending FlightAware Transoceanic
07:56AM 36.0524 -178.5201 88° East 546 628 39,200  Level FlightAware Transoceanic
07:57AM 36.0577 -178.3350 88° East 546 628 39,200  Level FlightAware Transoceanic
07:58AM 36.0627 -178.1498 88° East 546 628 39,200  Level FlightAware Transoceanic
07:59AM 36.0674 -177.9647 88° East 546 628 39,200 360 Level FlightAware Transoceanic
08:00AM 36.0754 -177.8791 88° East 544 626 40,000 360 Climbing FlightAware Transoceanic
08:01AM 36.0796 -177.6915 88° East 544 626 40,000  Level FlightAware Transoceanic
08:02AM 36.0835 -177.5039 89° East 544 626 40,000  Level FlightAware Transoceanic
08:03AM 36.0871 -177.3163 89° East 544 626 40,000  Level FlightAware Transoceanic
08:04AM 36.0905 -177.1287 89° East 544 626 40,000  Level FlightAware Transoceanic
08:05AM 36.0935 -176.9410 89° East 544 626 40,000  Level FlightAware Transoceanic
08:06AM 36.0962 -176.7533 89° East 544 626 40,000  Level FlightAware Transoceanic
08:07AM 36.0987 -176.5657 89° East 544 626 40,000  Level FlightAware Transoceanic
08:08AM 36.1008 -176.3780 89° East 544 626 40,000  Level FlightAware Transoceanic
08:08AM 36.1000 -176.2667 89° East 539 620 40,000  Level Oakland Oceanic (ODAPS)
08:09AM 36.1027 -176.1903 89° East 544 626 40,000  Level FlightAware Transoceanic
08:10AM 36.1043 -176.0026 89° East 544 626 40,000  Level FlightAware Transoceanic
08:11AM 36.1055 -175.8149 90° East 544 626 40,000  Level FlightAware Transoceanic
08:12AM 36.1065 -175.6271 90° East 544 626 40,000  Level FlightAware Transoceanic
08:13AM 36.1072 -175.4394 90° East 544 626 40,000  Level FlightAware Transoceanic
08:14AM 36.1061 -175.1600 90° East 539 620 40,000  Level FlightAware Transoceanic
08:15AM 36.1061 -174.9756 90° East 539 620 40,000  Level FlightAware Transoceanic
08:16AM 36.1058 -174.7911 90° East 539 620 40,000  Level FlightAware Transoceanic
08:17AM 36.1053 -174.6067 90° East 539 620 40,000  Level FlightAware Transoceanic
08:18AM 36.1045 -174.4223 90° East 539 620 40,000  Level FlightAware Transoceanic
08:19AM 36.1034 -174.2378 90° East 539 620 40,000  Level FlightAware Transoceanic
08:20AM 36.1020 -174.0534 91° East 539 620 40,000  Level FlightAware Transoceanic
08:21AM 36.1003 -173.8690 91° East 539 620 40,000  Level FlightAware Transoceanic
08:22AM 36.0984 -173.6845 91° East 539 620 40,000  Level FlightAware Transoceanic
08:22AM 36.1000 -173.7000 91° East 543 625 40,000  Level Oakland Oceanic (ODAPS)
08:23AM 36.0961 -173.5001 91° East 539 620 40,000  Level FlightAware Transoceanic
08:24AM 36.0936 -173.3157 91° East 539 620 40,000  Level FlightAware Transoceanic
08:25AM 36.0908 -173.1313 91° East 539 620 40,000  Level FlightAware Transoceanic
08:26AM 36.0877 -172.9470 91° East 539 620 40,000  Level FlightAware Transoceanic
08:27AM 36.0843 -172.7626 91° East 539 620 40,000  Level FlightAware Transoceanic
08:28AM 36.0819 -172.5891 91° East 543 625 40,000  Level FlightAware Transoceanic
08:29AM 36.0779 -172.4040 92° East 543 625 40,000  Level FlightAware Transoceanic
08:30AM 36.0737 -172.2189 92° East 543 625 40,000  Level FlightAware Transoceanic
08:31AM 36.0691 -172.0339 92° East 543 625 40,000  Level FlightAware Transoceanic
08:32AM 36.0642 -171.8488 92° East 543 625 40,000  Level FlightAware Transoceanic
08:33AM 36.0591 -171.6638 92° East 543 625 40,000  Level FlightAware Transoceanic
08:34AM 36.0536 -171.4788 92° East 543 625 40,000  Level FlightAware Transoceanic
08:35AM 36.0479 -171.2939 92° East 543 625 40,000  Level FlightAware Transoceanic
08:36AM 36.0419 -171.1089 92° East 543 625 40,000  Level FlightAware Transoceanic
08:36AM 36.0333 -171.0833 92° East 559 643 40,000  Level Oakland Oceanic (ODAPS)
08:37AM 36.0356 -170.9240 92° East 543 625 40,000  Level FlightAware Transoceanic
08:38AM 36.0291 -170.7392 93° East 543 625 40,000  Level FlightAware Transoceanic
08:39AM 36.0222 -170.5543 93° East 543 625 40,000  Level FlightAware Transoceanic
08:40AM 36.0151 -170.3695 93° East 543 625 40,000  Level FlightAware Transoceanic
08:41AM 36.0077 -170.1847 93° East 543 625 40,000  Level FlightAware Transoceanic
08:41AM 36.0000 -170.0000 87° East 562 647 40,000  Level Oakland Oceanic (ODAPS)
08:42AM 36.0000 -170.0000 87° East 559 643 40,000  Level FlightAware Transoceanic
08:43AM 36.0078 -169.8080 87° East 559 643 40,000  Level FlightAware Transoceanic
08:44AM 36.0154 -169.6160 87° East 559 643 40,000  Level FlightAware Transoceanic
08:45AM 36.0226 -169.4239 87° East 559 643 40,000  Level FlightAware Transoceanic
08:46AM 36.0295 -169.2318 88° East 559 643 40,000  Level FlightAware Transoceanic
08:47AM 36.0361 -169.0397 88° East 559 643 40,000  Level FlightAware Transoceanic
08:48AM 36.0424 -168.8475 88° East 562 647 40,000  Level FlightAware Transoceanic
08:49AM 36.0484 -168.6553 88° East 562 647 40,000  Level FlightAware Transoceanic
08:50AM 36.0541 -168.4631 88° East 562 647 40,000  Level FlightAware Transoceanic
08:50AM 36.0500 -168.4000 88° East 569 655 40,000  Level Oakland Oceanic (ODAPS)
08:51AM 36.0595 -168.2709 88° East 562 647 40,000  Level FlightAware Transoceanic
08:52AM 36.0645 -168.0786 88° East 562 647 40,000  Level FlightAware Transoceanic
08:53AM 36.0693 -167.8863 88° East 562 647 40,000  Level FlightAware Transoceanic
08:54AM 36.0738 -167.6940 88° East 562 647 40,000  Level FlightAware Transoceanic
08:55AM 36.0779 -167.5016 89° East 562 647 40,000  Level FlightAware Transoceanic
08:56AM 36.0782 -167.2282 89° East 569 655 40,000  Level FlightAware Transoceanic
08:57AM 36.0818 -167.0328 89° East 569 655 40,000  Level FlightAware Transoceanic
08:58AM 36.0851 -166.8374 89° East 569 655 40,000  Level FlightAware Transoceanic
08:59AM 36.0881 -166.6420 89° East 569 655 40,000  Level FlightAware Transoceanic
09:00AM 36.0907 -166.4466 89° East 569 655 40,000  Level FlightAware Transoceanic
09:01AM 36.0930 -166.2511 89° East 569 655 40,000  Level FlightAware Transoceanic
09:02AM 36.0951 -166.0557 89° East 569 655 40,000  Level FlightAware Transoceanic
09:03AM 36.0967 -165.8602 89° East 569 655 40,000  Level FlightAware Transoceanic
09:04AM 36.0981 -165.6647 90° East 569 655 40,000  Level FlightAware Transoceanic
09:04AM 36.1000 -165.7167 90° East 562 647 40,000  Level Oakland Oceanic (ODAPS)
09:05AM 36.0992 -165.4693 90° East 569 655 40,000  Level FlightAware Transoceanic
09:06AM 36.0999 -165.2738 90° East 569 655 40,000  Level FlightAware Transoceanic
09:07AM 36.1003 -165.0783 90° East 569 655 40,000  Level FlightAware Transoceanic
09:08AM 36.1004 -164.8828 90° East 569 655 40,000  Level FlightAware Transoceanic
09:09AM 36.1002 -164.6873 90° East 569 655 40,000  Level FlightAware Transoceanic
09:10AM 36.1017 -164.5725 90° East 562 647 40,000  Level FlightAware Transoceanic
09:11AM 36.1010 -164.3818 90° East 562 647 40,000  Level FlightAware Transoceanic
09:12AM 36.0999 -164.1911 90° East 562 647 40,000  Level FlightAware Transoceanic
09:13AM 36.0985 -164.0004 91° East 562 647 40,000  Level FlightAware Transoceanic
09:14AM 36.0969 -163.8097 91° East 562 647 40,000  Level FlightAware Transoceanic
09:15AM 36.0949 -163.6191 91° East 562 647 40,000  Level FlightAware Transoceanic
09:16AM 36.0926 -163.4284 91° East 562 647 40,000  Level FlightAware Transoceanic
09:17AM 36.0900 -163.2378 91° East 562 647 40,000  Level FlightAware Transoceanic
09:17AM 36.0833 -163.0833 91° East 547 629 40,000  Level Oakland Oceanic (ODAPS)
09:18AM 36.0871 -163.0471 91° East 562 647 40,000  Level FlightAware Transoceanic
09:19AM 36.0839 -162.8565 91° East 562 647 40,000  Level FlightAware Transoceanic
09:20AM 36.0805 -162.6659 91° East 562 647 40,000  Level FlightAware Transoceanic
09:21AM 36.0767 -162.4753 91° East 562 647 40,000  Level FlightAware Transoceanic
09:22AM 36.0726 -162.2848 92° East 562 647 40,000  Level FlightAware Transoceanic
09:23AM 36.0682 -162.0942 92° East 562 647 40,000  Level FlightAware Transoceanic
09:24AM 36.0613 -161.9263 92° East 547 629 40,000  Level FlightAware Transoceanic
09:25AM 36.0566 -161.7336 92° East 547 629 40,000  Level FlightAware Transoceanic
09:26AM 36.0515 -161.5408 92° East 547 629 40,000  Level FlightAware Transoceanic
09:27AM 36.0462 -161.3481 92° East 547 629 40,000  Level FlightAware Transoceanic
09:28AM 36.0405 -161.1555 92° East 547 629 40,000  Level FlightAware Transoceanic
09:29AM 36.0345 -160.9628 92° East 547 629 40,000  Level FlightAware Transoceanic
09:30AM 36.0282 -160.7702 92° East 547 629 40,000  Level FlightAware Transoceanic
09:31AM 36.0216 -160.5776 92° East 547 629 40,000  Level FlightAware Transoceanic
09:31AM 36.0167 -160.5000 92° East 553 636 40,000  Level Oakland Oceanic (ODAPS)
09:32AM 36.0147 -160.3850 93° East 547 629 40,000  Level FlightAware Transoceanic
09:33AM 36.0075 -160.1925 93° East 547 629 40,000  Level FlightAware Transoceanic
09:34AM 36.0000 -160.0000 80° East 547 629 40,000  Level FlightAware Transoceanic
09:34AM 36.0000 -160.0000 80° East 559 643 40,000  Level Oakland Oceanic (ODAPS)
09:35AM 36.0270 -159.8104 80° East 547 629 40,000  Level FlightAware Transoceanic
09:36AM 36.0538 -159.6207 80° East 547 629 40,000  Level FlightAware Transoceanic
09:37AM 36.0802 -159.4309 80° East 547 629 40,000  Level FlightAware Transoceanic
09:38AM 36.1063 -159.2409 80° East 553 636 40,000  Level FlightAware Transoceanic
09:39AM 36.1321 -159.0509 81° East 553 636 40,000  Level FlightAware Transoceanic
09:40AM 36.1577 -158.8607 81° East 559 643 40,000  Level FlightAware Transoceanic
09:41AM 36.1829 -158.6703 81° East 559 643 40,000  Level FlightAware Transoceanic
09:42AM 36.2078 -158.4799 81° East 559 643 40,000  Level FlightAware Transoceanic
09:43AM 36.2325 -158.2893 81° East 559 643 40,000  Level FlightAware Transoceanic
09:44AM 36.2568 -158.0986 81° East 559 643 40,000  Level FlightAware Transoceanic
09:45AM 36.2808 -157.9078 81° East 559 643 40,000  Level FlightAware Transoceanic
09:45AM 36.2833 -157.8833 81° East 565 650 40,000  Level Oakland Oceanic (ODAPS)
09:46AM 36.3045 -157.7169 81° East 559 643 40,000  Level FlightAware Transoceanic
09:47AM 36.3279 -157.5258 81° East 559 643 40,000  Level FlightAware Transoceanic
09:48AM 36.3511 -157.3347 82° East 559 643 40,000  Level FlightAware Transoceanic
09:49AM 36.3739 -157.1434 82° East 559 643 40,000  Level FlightAware Transoceanic
09:50AM 36.3964 -156.9520 82° East 559 643 40,000  Level FlightAware Transoceanic
09:51AM 36.4186 -156.7605 82° East 559 643 40,000  Level FlightAware Transoceanic
09:52AM 36.4423 -156.5486 82° East 565 650 40,000  Level FlightAware Transoceanic
09:53AM 36.4638 -156.3575 82° East 565 650 40,000  Level FlightAware Transoceanic
09:54AM 36.4850 -156.1662 82° East 565 650 40,000  Level FlightAware Transoceanic
09:55AM 36.5059 -155.9749 82° East 565 650 40,000  Level FlightAware Transoceanic
09:56AM 36.5265 -155.7835 82° East 565 650 40,000  Level FlightAware Transoceanic
09:57AM 36.5467 -155.5919 83° East 565 650 40,000  Level FlightAware Transoceanic
09:58AM 36.5667 -155.4003 83° East 565 650 40,000  Level FlightAware Transoceanic
09:59AM 36.5864 -155.2086 83° East 565 650 40,000  Level FlightAware Transoceanic
09:59AM 36.5833 -155.2167 83° East 567 652 40,000  Level Oakland Oceanic (ODAPS)
10:00AM 36.6057 -155.0168 83° East 565 650 40,000  Level FlightAware Transoceanic
10:01AM 36.6248 -154.8248 83° East 565 650 40,000  Level FlightAware Transoceanic
10:02AM 36.6435 -154.6328 83° East 565 650 40,000  Level FlightAware Transoceanic
10:03AM 36.6619 -154.4407 83° East 565 650 40,000  Level FlightAware Transoceanic
10:04AM 36.6801 -154.2485 83° East 565 650 40,000  Level FlightAware Transoceanic
10:05AM 36.6956 -154.0625 83° East 567 652 40,000  Level FlightAware Transoceanic
10:06AM 36.7132 -153.8699 84° East 567 652 40,000  Level FlightAware Transoceanic
10:07AM 36.7305 -153.6771 84° East 567 652 40,000  Level FlightAware Transoceanic
10:08AM 36.7475 -153.4843 84° East 567 652 40,000  Level FlightAware Transoceanic
10:09AM 36.7642 -153.2913 84° East 567 652 40,000  Level FlightAware Transoceanic
10:10AM 36.7806 -153.0983 84° East 567 652 40,000  Level FlightAware Transoceanic
10:11AM 36.7966 -152.9052 84° East 567 652 40,000  Level FlightAware Transoceanic
10:12AM 36.8124 -152.7121 84° East 567 652 40,000  Level FlightAware Transoceanic
10:13AM 36.8278 -152.5188 84° East 567 652 40,000  Level FlightAware Transoceanic
10:13AM 36.8333 -152.5667 85° East 555 639 40,000  Level Oakland Oceanic (ODAPS)
10:14AM 36.8430 -152.3255 84° East 567 652 40,000  Level FlightAware Transoceanic
10:15AM 36.8578 -152.1320 85° East 567 652 40,000  Level FlightAware Transoceanic
10:16AM 36.8723 -151.9386 85° East 567 652 40,000  Level FlightAware Transoceanic
10:17AM 36.8865 -151.7450 85° East 567 652 40,000  Level FlightAware Transoceanic
10:18AM 36.9003 -151.5514 85° East 567 652 40,000  Level FlightAware Transoceanic
10:19AM 36.9115 -151.4680 85° East 555 639 40,000  Level FlightAware Transoceanic
10:20AM 36.9236 -151.2847 85° East 555 639 40,000  Level FlightAware Transoceanic
10:21AM 36.9353 -151.1014 85° East 555 639 40,000  Level FlightAware Transoceanic
10:22AM 36.9468 -150.9179 86° East 555 639 40,000  Level FlightAware Transoceanic
10:23AM 36.9580 -150.7345 86° East 555 639 40,000  Level FlightAware Transoceanic
10:24AM 36.9689 -150.5509 86° East 555 639 40,000  Level FlightAware Transoceanic
10:25AM 36.9796 -150.3673 86° East 555 639 40,000  Level FlightAware Transoceanic
10:26AM 36.9899 -150.1837 86° East 555 639 40,000  Level FlightAware Transoceanic
10:26AM 37.0000 -150.0000 73° East 566 651 40,000  Level Oakland Oceanic (ODAPS)
10:27AM 37.0000 -150.0000 73° East 555 639 40,000  Level FlightAware Transoceanic
10:27AM 37.0167 -149.9167 73° East 567 652 40,000  Level Oakland Oceanic (ODAPS)
10:28AM 37.0463 -149.8131 73° East 555 639 40,000  Level FlightAware Transoceanic
10:29AM 37.0923 -149.6259 73° East 555 639 40,000  Level FlightAware Transoceanic
10:30AM 37.1380 -149.4386 73° East 555 639 40,000  Level FlightAware Transoceanic
10:31AM 37.1834 -149.2509 73° East 555 639 40,000  Level FlightAware Transoceanic
10:32AM 37.2285 -149.0631 73° East 555 639 40,000  Level FlightAware Transoceanic
10:33AM 37.2926 -148.7789 73° East 567 652 40,000  Level FlightAware Transoceanic
10:34AM 37.3375 -148.5885 74° East 567 652 40,000  Level FlightAware Transoceanic
10:35AM 37.3821 -148.3978 74° East 567 652 40,000  Level FlightAware Transoceanic
10:36AM 37.4264 -148.2069 74° East 567 652 40,000  Level FlightAware Transoceanic
10:37AM 37.4704 -148.0158 74° East 567 652 40,000  Level FlightAware Transoceanic
10:38AM 37.5141 -147.8245 74° East 567 652 40,000  Level FlightAware Transoceanic
10:39AM 37.5575 -147.6329 74° East 567 652 40,000  Level FlightAware Transoceanic
10:40AM 37.6006 -147.4412 74° East 567 652 40,000  Level FlightAware Transoceanic
10:41AM 37.6434 -147.2492 74° East 567 652 40,000  Level FlightAware Transoceanic
10:41AM 37.6500 -147.2667 74° East 571 657 40,000  Level Oakland Oceanic (ODAPS)
10:42AM 37.6858 -147.0569 74° East 567 652 40,000  Level FlightAware Transoceanic
10:43AM 37.7280 -146.8645 75° East 567 652 40,000  Level FlightAware Transoceanic
10:44AM 37.7698 -146.6718 75° East 567 652 40,000  Level FlightAware Transoceanic
10:45AM 37.8113 -146.4790 75° East 567 652 40,000  Level FlightAware Transoceanic
10:46AM 37.8525 -146.2859 75° East 567 652 40,000  Level FlightAware Transoceanic
10:47AM 37.8991 -146.1072 75° East 571 657 40,000  Level FlightAware Transoceanic
10:48AM 37.9395 -145.9132 75° East 571 657 40,000  Level FlightAware Transoceanic
10:49AM 37.9796 -145.7190 75° East 571 657 40,000  Level FlightAware Transoceanic
10:50AM 38.0194 -145.5246 76° East 571 657 40,000  Level FlightAware Transoceanic
10:51AM 38.0588 -145.3299 76° East 571 657 40,000  Level FlightAware Transoceanic
10:52AM 38.0979 -145.1351 76° East 571 657 40,000  Level FlightAware Transoceanic
10:53AM 38.1367 -144.9400 76° East 571 657 40,000  Level FlightAware Transoceanic
10:54AM 38.1752 -144.7448 76° East 571 657 40,000  Level FlightAware Transoceanic
10:55AM 38.2134 -144.5493 76° East 571 657 40,000  Level FlightAware Transoceanic
10:55AM 38.2000 -144.5833 76° East 561 646 40,000  Level Oakland Oceanic (ODAPS)
10:56AM 38.2512 -144.3536 76° East 571 657 40,000  Level FlightAware Transoceanic
10:57AM 38.2887 -144.1578 76° East 571 657 40,000  Level FlightAware Transoceanic
10:58AM 38.3259 -143.9617 76° East 571 657 40,000  Level FlightAware Transoceanic
10:59AM 38.3628 -143.7654 77° East 571 657 40,000  Level FlightAware Transoceanic
11:00AM 38.3993 -143.5690 77° East 571 657 40,000  Level FlightAware Transoceanic
11:01AM 38.4259 -143.3977 77° East 561 646 40,000  Level FlightAware Transoceanic
11:02AM 38.4623 -143.1994 77° East 561 646 40,000  Level FlightAware Transoceanic
11:03AM 38.4985 -143.0008 77° East 561 646 40,000  Level FlightAware Transoceanic
11:04AM 38.5343 -142.8021 77° East 561 646 40,000  Level FlightAware Transoceanic
11:05AM 38.5698 -142.6032 77° East 561 646 40,000  Level FlightAware Transoceanic
11:06AM 38.6049 -142.4041 77° East 561 646 40,000  Level FlightAware Transoceanic
11:07AM 38.6397 -142.2048 77° East 561 646 40,000  Level FlightAware Transoceanic
11:08AM 38.6742 -142.0053 78° East 561 646 40,000  Level FlightAware Transoceanic
11:08AM 38.6833 -141.9333 78° East 553 636 40,000  Level Oakland Oceanic (ODAPS)
11:09AM 38.7083 -141.8056 78° East 561 646 40,000  Level FlightAware Transoceanic
11:10AM 38.7421 -141.6057 78° East 561 646 40,000  Level FlightAware Transoceanic
11:11AM 38.7755 -141.4056 78° East 561 646 40,000  Level FlightAware Transoceanic
11:12AM 38.8086 -141.2054 78° East 561 646 40,000  Level FlightAware Transoceanic
11:13AM 38.8414 -141.0049 78° East 561 646 40,000  Level FlightAware Transoceanic
11:14AM 38.8738 -140.8043 78° East 561 646 40,000  Level FlightAware Transoceanic
11:15AM 38.8772 -140.7754 78° East 553 636 40,000  Level FlightAware Transoceanic
11:16AM 38.9084 -140.5818 78° East 553 636 40,000  Level FlightAware Transoceanic
11:17AM 38.9392 -140.3880 78° East 553 636 40,000  Level FlightAware Transoceanic
11:18AM 38.9698 -140.1941 79° East 553 636 40,000  Level FlightAware Transoceanic
11:18AM 39.0000 -140.0000 87° East 556 640 40,000  Level Oakland Oceanic (ODAPS)
11:19AM 39.0000 -140.0000 87° East 553 636 40,000  Level FlightAware Transoceanic
11:20AM 39.0085 -139.7963 87° East 553 636 40,000  Level FlightAware Transoceanic
11:21AM 39.0167 -139.5926 87° East 553 636 40,000  Level FlightAware Transoceanic
11:22AM 39.0246 -139.3888 87° East 553 636 40,000  Level FlightAware Transoceanic
11:22AM 39.0333 -139.2667 87° East 559 643 40,000  Level Oakland Oceanic (ODAPS)
11:23AM 39.0320 -139.1849 87° East 553 636 40,000  Level FlightAware Transoceanic
11:24AM 39.0391 -138.9811 87° East 553 636 40,000  Level FlightAware Transoceanic
11:25AM 39.0451 -138.8016 88° East 556 640 40,000  Level FlightAware Transoceanic
11:26AM 39.0514 -138.6017 88° East 556 640 40,000  Level FlightAware Transoceanic
11:27AM 39.0574 -138.4018 88° East 556 640 40,000  Level FlightAware Transoceanic
11:28AM 39.0653 -138.2602 88° East 559 643 40,000  Level FlightAware Transoceanic
11:29AM 39.0706 -138.0588 88° East 559 643 40,000  Level FlightAware Transoceanic
11:30AM 39.0756 -137.8574 88° East 559 643 40,000  Level FlightAware Transoceanic
11:31AM 39.0803 -137.6559 88° East 559 643 40,000  Level FlightAware Transoceanic
11:32AM 39.0846 -137.4545 88° East 559 643 40,000  Level FlightAware Transoceanic
11:33AM 39.0885 -137.2530 89° East 559 643 40,000  Level FlightAware Transoceanic
11:34AM 39.0921 -137.0515 89° East 559 643 40,000  Level FlightAware Transoceanic
11:35AM 39.0954 -136.8499 89° East 559 643 40,000  Level FlightAware Transoceanic
11:36AM 39.0983 -136.6484 89° East 559 643 40,000  Level FlightAware Transoceanic
11:36AM 39.1000 -136.5667 89° East 545 627 40,000  Level Oakland Oceanic (ODAPS)
11:37AM 39.1009 -136.4468 89° East 559 643 40,000  Level FlightAware Transoceanic
11:38AM 39.1031 -136.2452 89° East 559 643 40,000  Level FlightAware Transoceanic
11:39AM 39.1050 -136.0436 89° East 559 643 40,000  Level FlightAware Transoceanic
11:40AM 39.1065 -135.8420 90° East 559 643 40,000  Level FlightAware Transoceanic
11:41AM 39.1077 -135.6404 90° East 559 643 40,000  Level FlightAware Transoceanic
11:42AM 39.1091 -135.4070 90° East 545 627 40,000  Level FlightAware Transoceanic
11:43AM 39.1096 -135.2137 90° East 545 627 40,000  Level FlightAware Transoceanic
11:44AM 39.1096 -135.0204 90° East 545 627 40,000  Level FlightAware Transoceanic
11:45AM 39.1094 -134.8271 90° East 545 627 40,000  Level FlightAware Transoceanic
11:46AM 39.1088 -134.6339 90° East 545 627 40,000  Level FlightAware Transoceanic
11:47AM 39.1080 -134.4406 90° East 545 627 40,000  Level FlightAware Transoceanic
11:48AM 39.1068 -134.2473 91° East 545 627 40,000  Level FlightAware Transoceanic
11:49AM 39.1053 -134.0540 91° East 545 627 40,000  Level FlightAware Transoceanic
11:50AM 39.1035 -133.8607 91° East 545 627 40,000  Level FlightAware Transoceanic
11:50AM 39.1000 -133.8167 91° East 564 649 40,000  Level Oakland Oceanic (ODAPS)
11:51AM 39.1013 -133.6675 91° East 545 627 40,000  Level FlightAware Transoceanic
11:52AM 39.0988 -133.4742 91° East 545 627 40,000  Level FlightAware Transoceanic
11:53AM 39.0961 -133.2810 91° East 545 627 40,000  Level FlightAware Transoceanic
11:54AM 39.0930 -133.0878 91° East 545 627 40,000  Level FlightAware Transoceanic
11:55AM 39.0895 -132.8946 91° East 545 627 40,000  Level FlightAware Transoceanic
11:56AM 39.0819 -132.6103 91° East 564 649 40,000  Level FlightAware Transoceanic
11:57AM 39.0776 -132.4093 92° East 564 649 40,000  Level FlightAware Transoceanic
11:58AM 39.0731 -132.2084 92° East 564 649 40,000  Level FlightAware Transoceanic
11:59AM 39.0681 -132.0074 92° East 564 649 40,000  Level FlightAware Transoceanic
12:00PM 39.0629 -131.8065 92° East 564 649 40,000  Level FlightAware Transoceanic
12:01PM 39.0573 -131.6057 92° East 564 649 40,000  Level FlightAware Transoceanic
12:02PM 39.0513 -131.4048 92° East 564 649 40,000  Level FlightAware Transoceanic
12:03PM 39.0450 -131.2040 92° East 564 649 40,000  Level FlightAware Transoceanic
12:04PM 39.0384 -131.0032 93° East 564 649 40,000 720 Level FlightAware Transoceanic
12:04PM 39.0333 -131.0000 92° East 551 634 41,000  Climbing Oakland Oceanic (ODAPS)
12:05PM 39.0314 -130.8025 93° East 564 649 40,000 -600 Descending FlightAware Transoceanic
12:06PM 39.0241 -130.6018 93° East 564 649 40,000  Level FlightAware Transoceanic
12:07PM 39.0164 -130.4012 93° East 564 649 40,000  Level FlightAware Transoceanic
12:08PM 39.0084 -130.2006 93° East 564 649 40,000  Level FlightAware Transoceanic
12:09PM 39.0000 -130.0000 102° East 564 649 40,000  Level FlightAware Transoceanic
12:09PM 39.0000 -130.0000 102° East 567 652 40,000 960 Level Oakland Oceanic (ODAPS)
12:10PM 38.9689 -129.8112 102° East 551 634 41,000 600 Climbing FlightAware Transoceanic
12:11PM 38.9375 -129.6226 102° East 551 634 41,000  Level FlightAware Transoceanic
12:12PM 38.9059 -129.4341 102° East 551 634 41,000  Level FlightAware Transoceanic
12:13PM 38.8739 -129.2458 102° East 551 634 41,000  Level FlightAware Transoceanic
12:14PM 38.8416 -129.0577 102° East 551 634 41,000 -540 Level FlightAware Transoceanic
12:15PM 38.7959 -128.7946 103° East 567 652 40,000 -540 Descending FlightAware Transoceanic
12:16PM 38.7607 -128.5944 103° East 567 652 40,000  Level FlightAware Transoceanic
12:17PM 38.7251 -128.3944 103° East 567 652 40,000  Level FlightAware Transoceanic
12:18PM 38.6892 -128.1946 103° East 567 652 40,000  Level FlightAware Transoceanic
12:18PM 38.7000 -128.3000 103° East 557 641 40,000  Level Oakland Oceanic (ODAPS)
12:19PM 38.6530 -127.9950 103° East 567 652 40,000  Level FlightAware Transoceanic
12:20PM 38.6164 -127.7956 103° East 567 652 40,000  Level FlightAware Transoceanic
12:21PM 38.5794 -127.5964 103° East 567 652 40,000  Level FlightAware Transoceanic
12:22PM 38.5422 -127.3974 104° East 567 652 40,000  Level FlightAware Transoceanic
12:22PM 38.5431 -127.4931 111° Southeast 549 632 40,000  Level Oakland Center
12:23PM 38.5046 -127.1986 104° East 567 652 40,000 -120 Level FlightAware Transoceanic
12:23PM 38.5086 -127.3039 103° East 549 632 39,900  Descending Oakland Center
12:24PM 38.5009 -127.1852 103° East 557 641 40,000 60 Climbing FlightAware Transoceanic
12:24PM 38.4719 -127.1133 104° East 553 636 40,000  Level Oakland Center
12:25PM 38.4667 -127.0000 111° Southeast 557 641 40,000 -120 Level FlightAware Transoceanic
12:25PM 38.4294 -126.9269 106° East 551 634 39,900  Descending Oakland Center
12:26PM 38.4094 -126.8114 111° Southeast 557 641 40,000 60 Climbing FlightAware Transoceanic
12:26PM 38.3675 -126.7447 113° Southeast 558 642 40,000  Level Oakland Center
12:27PM 38.3518 -126.6232 111° Southeast 557 641 40,000 -120 Level FlightAware Transoceanic
12:27PM 38.3028 -126.5647 115° Southeast 561 646 39,900 -120 Descending Oakland Center
12:28PM 38.2356 -126.3858 116° Southeast 562 647 39,900  Level Oakland Center
12:29PM 38.1697 -126.2081 115° Southeast 566 651 40,000  Climbing Oakland Center
12:30PM 38.1039 -126.0281 115° Southeast 565 650 39,900 -60 Descending Oakland Center
12:31PM 38.0236 -125.8131 115° Southeast 563 648 39,900  Level Oakland Center
12:32PM 37.9564 -125.6339 115° Southeast 565 650 40,000  Climbing Oakland Center
12:33PM 37.8875 -125.4558 116° Southeast 566 651 40,000  Level Oakland Center
12:34PM 37.8217 -125.2756 115° Southeast 567 652 40,000 420 Level Oakland Center
12:35PM 37.7531 -125.0953 116° Southeast 570 656 40,900 480 Climbing Oakland Center
12:36PM 37.6847 -124.9175 116° Southeast 568 654 41,000  Climbing Oakland Center
12:37PM 37.6167 -124.7378 116° Southeast 570 656 40,900 -60 Descending Oakland Center
12:38PM 37.5486 -124.5603 116° Southeast 568 654 40,900  Level Oakland Center
12:39PM 37.4794 -124.3808 116° Southeast 571 657 41,000  Climbing Oakland Center
12:40PM 37.4100 -124.2025 116° Southeast 571 657 40,900 -60 Descending Oakland Center
12:41PM 37.3264 -123.9878 116° Southeast 571 657 40,900  Level Oakland Center
12:42PM 37.2525 -123.8072 117° Southeast 583 671 40,900  Level Oakland Center
12:45PM 37.1430 -123.5325 117° Southeast  Level FlightAware Approximate
12:45PM 37.0506 -123.3314 117° Southeast 579 666 41,000  Level Los Angeles Center
12:46PM 36.9794 -123.1514 116° Southeast 578 665 41,000  Level Los Angeles Center
12:47PM 36.9086 -122.9708 116° Southeast 579 666 41,000 -60 Level Los Angeles Center
12:48PM 36.8253 -122.7369 114° Southeast 577 664 40,900  Descending Oakland Center
12:49PM 36.7372 -122.5239 117° Southeast 580 667 41,000  Climbing Oakland Center
12:50PM 36.6642 -122.3486 117° Southeast 574 661 41,000 -60 Level Oakland Center
12:51PM 36.5906 -122.1744 118° Southeast 573 659 40,900  Descending Oakland Center
12:52PM 36.5169 -121.9961 117° Southeast 586 674 41,000  Climbing Oakland Center
12:53PM 36.4428 -121.8214 118° Southeast 578 665 40,900 -60 Descending Oakland Center
12:54PM 36.3719 -121.6553 118° Southeast 575 662 40,900  Level Oakland Center
12:55PM 36.2936 -121.4833 119° Southeast 578 665 40,900  Level Oakland Center
12:56PM 36.2044 -121.3211 124° Southeast 576 663 41,000  Climbing Oakland Center
12:57PM 36.0967 -121.1264 124° Southeast 573 659 41,000 -60 Level Oakland Center
12:59PM 36.0086 -120.9639 124° Southeast 570 656 40,900  Descending Oakland Center
01:00PM 35.9178 -120.8036 125° Southeast 571 657 41,000  Climbing Oakland Center
01:01PM 35.8264 -120.6419 125° Southeast 575 662 40,900 -60 Descending Oakland Center
01:02PM 35.7344 -120.4783 125° Southeast 577 664 40,900 -840 Level Oakland Center
01:03PM 35.6281 -120.3292 131° Southeast 583 671 39,300 -1,440 Descending Oakland Center
01:03PM 35.5381 -120.2269 137° Southeast 573 659 38,200 -2,040 Descending Los Angeles Center
01:05PM 35.4178 -120.0844 136° Southeast 562 647 35,400 -2,760 Descending Los Angeles Center
01:06PM 35.3056 -119.9547 137° Southeast 551 634 32,500 -3,000 Descending Los Angeles Center
01:07PM 35.1758 -119.8064 137° Southeast 531 611 29,200 -2,880 Descending Los Angeles Center
01:08PM 35.0736 -119.6886 137° Southeast 508 585 26,700 -2,100 Descending Los Angeles Center
01:09PM 34.9758 -119.5772 137° Southeast 485 558 24,900 -1,800 Descending Los Angeles Center
01:10PM 34.8839 -119.4719 137° Southeast 458 527 23,000 -1,860 Descending Los Angeles Center
01:11PM 34.7939 -119.3711 137° Southeast 442 509 21,100 -1,740 Descending Los Angeles Center
01:12PM 34.7072 -119.2742 137° Southeast 428 493 19,500 -1,680 Descending Los Angeles Center
01:13PM 34.6108 -119.1664 137° Southeast 410 472 17,700 -1,320 Descending Los Angeles Center
01:14PM 34.5292 -119.0722 136° Southeast 408 470 16,800 -1,020 Descending Los Angeles Center
01:15PM 34.4497 -118.9839 137° Southeast 391 450 15,700 -1,080 Descending Los Angeles Center
01:16PM 34.3717 -118.8983 138° Southeast 380 437 14,600 -1,080 Descending Los Angeles Center
01:17PM 34.2822 -118.8539 158° South 348 400 13,600 -1,200 Descending Los Angeles Center
01:22PM 34.0142 -118.4992 158° South 261 300 7,100 -1,200 Descending FlightAware ADS-B
01:23PM 34.0118 -118.4702 96° East 262 302 6,800 -900 Descending FlightAware ADS-B
01:23PM 34.0130 -118.4183 88° East 262 302 6,300 -1,200 Descending FlightAware ADS-B
01:24PM 34.0185 -118.3699 82° East 253 291 5,400 -1,440 Descending FlightAware ADS-B
01:24PM 34.0219 -118.3416 82° East 251 289 4,900 -1,020 Descending FlightAware ADS-B
01:25PM 34.0317 -118.2783 82° East 253 291 4,200 -900 Descending Los Angeles Center
01:26PM 34.0383 -118.1978 84° East 244 281 3,200 -840 Descending Los Angeles Center
01:27PM 33.9914 -118.1761 159° South 205 236 2,500 -540 Descending Los Angeles Center
01:28PM 33.9692 -118.2317 244° Southwest 172 198 2,200 -180 Descending Los Angeles Center
01:29PM 33.9650 -118.2819 264° West 160 184 2,200 -420 Level Los Angeles Center
01:30PM 33.9603 -118.3322 264° West 156 180 1,400 -780 Descending Los Angeles Center
01:31PM 33.9556 -118.3814 263° West 151 174 600 -600 Descending Los Angeles Center
01:32PM 33.9489 -118.4386 262° West 152 175 200 -420 Descending Los Angeles Center